Bangkok, Thaïlande

05:03 ICT le 06 février 2016 (GMT +0700)
Keerapat International School | | Change Station
CLOSE
Current Station
Stations météorologiques personnelles
Location: Bangkok,
Altitude: 20 ft
Stations météo à proximité

Alt. 20 ft 13.85 °N, 100.63 °E | Updated 16 seconds ago

Clear
Ciel dégagé
74.8 ° F
Paraît 77 ° F
N
0.4
Vent Variable Vent de Est
Gusts 2.5 mph

Aujourd'hui
Haut(e) -- | Bas -- ° F
--% Risque de précip.
Hier
Haut(e) -- | Bas -- ° F
Precip. -- pouce
Pression 29.83 pouce
Visibilité -9999.0 Miles terrestres
Nuages
indice de chaleur 77 ° F
Point de rosée 62 ° F
Humidité 65%
Précipitations 0.00 pouce
Profondeur de la couche neigeuse Non disponible.
6:44 AM 6:19 PM
Lune descendante, 9% visible
METAR VTBD 052130Z 05005KT CAVOK 23/17 Q1010 NOSIG
Pression 29.83 pouce
Visibilité -9999.0 Miles terrestres
Nuages
indice de chaleur 77 ° F
Point de rosée 62 ° F
Humidité 65%
Précipitations 0.00 pouce
Profondeur de la couche neigeuse Non disponible.
6:44 AM 6:19 PM
Lune descendante, 9% visible
METAR VTBD 052130Z 05005KT CAVOK 23/17 Q1010 NOSIG

10-Day Weather Forecast

No radar image for this location.
×

Almanac

Astronomie

Feb. 06, 2016 Lever Coucher
Temps réel
Crépuscule civil
Crépuscule nautique
Crépuscule astronomique
Lune
Durée de lumière visible
Longueur du jour
Tomorrow will be .
, % of the Moon is Illuminated

Extrêmes aujourd'hui

Country Highs Country Lows

Community

WunderPhotos

Upload Photos

1,890,873 Photos téléchargées !

WunderBlog® & News

Nearby

Qualité de l'air

  Qualité de l'air Indice de la qualité de l'air Polluant
Not available.

Épaisseur de neige

Station Depth Altitude

Activité sismique

Ville Distance Mag. Time & Date
Minimum magnitude displayed is 2.5.

Températures des eaux côtières

Lieu Température

Stations

Stations météo à proximité

Emplacement de la station Température Refroidissement éolien Point de rosée Humidité Vent Precip. Alt. Mise à jour Type